Buoy 32974

sailwx.info

Track history (hours):
 
Tides and Currents Weather Stations Pressure Air Temp Water Temp Dewpoint Dewpoint Depression Visibility Wind Speed Wind Dir Waves Ship Positions

Drifting buoy 32974

Last reported at 2017-Nov-18 00:00 UTC. Time now 2017-Nov-18 01:04 UTC.
Position N 12°59' W 147°47'.

Water temperature 27.8 ° C

Date/timePositionNaut miles runAvg speedWind from/ knotsBaromVisibWave heightAir tempDewpointWater temp
2017-Nov-18 00:00N 12°59' W 147°47'1 0.2 27.8
2017-Nov-17 19:00N 12°58' W 147°47'1 0.6 27.7
2017-Nov-17 18:00N 12°58' W 147°47'0 0.0 27.7
2017-Nov-17 17:00N 12°58' W 147°47'1 0.6 27.7
2017-Nov-17 16:00N 12°58' W 147°47'0 0.0 27.7
2017-Nov-17 15:00N 12°58' W 147°47'0 0.0 27.7
2017-Nov-17 14:00N 12°58' W 147°47'1 1.3 27.7
2017-Nov-17 13:00N 12°57' W 147°46'1 1.2 27.7
2017-Nov-17 12:00N 12°57' W 147°47'1 0.3 27.7
2017-Nov-17 08:00N 12°57' W 147°46'1 1.2 27.7
2017-Nov-17 07:00N 12°58' W 147°46'1 1.2 27.7
2017-Nov-17 06:00N 12°58' W 147°44'1 0.6 27.7
2017-Nov-17 05:00N 12°58' W 147°45'1 0.6 27.8
2017-Nov-17 04:00N 12°59' W 147°45'0 0.0 27.8
2017-Nov-17 03:00N 12°59' W 147°45'1 0.8 27.8
2017-Nov-17 02:00N 12°59' W 147°44'1 0.6 27.8
2017-Nov-17 01:00N 13°00' W 147°44'2 1.9 27.8
2017-Nov-17 00:00N 13°02' W 147°45'0 0.0 27.8
2017-Nov-16 20:00N 13°02' W 147°45'0 0.0 27.7
2017-Nov-16 19:00N 13°02' W 147°45'1 0.6 27.7
2017-Nov-16 18:00N 13°02' W 147°46'1 0.6 27.7
2017-Nov-16 17:00N 13°02' W 147°46'1 1.3 27.9
2017-Nov-16 16:00N 13°03' W 147°46'0 0.0 27.8
2017-Nov-16 15:00N 13°03' W 147°46'1 0.8 27.7
2017-Nov-16 14:00N 13°04' W 147°46'2 2.1 27.7
2017-Nov-16 13:00N 13°05' W 147°47'1 0.1 27.7
2017-Nov-16 07:00N 13°06' W 147°47'1 0.6 28.0
2017-Nov-16 06:00N 13°06' W 147°47'1 0.6 28.0
2017-Nov-16 05:00N 13°07' W 147°47'1 0.6 28.1
2017-Nov-16 04:00N 13°07' W 147°47'1 1.3 28.2
2017-Nov-16 03:00N 13°08' W 147°47'1 0.6 28.4
2017-Nov-16 02:00N 13°08' W 147°47'1 0.3 28.8
2017-Nov-16 00:00N 13°08' W 147°47'1 0.2 28.9
2017-Nov-15 19:00N 13°09' W 147°47'1 0.6 27.7
2017-Nov-15 18:00N 13°08' W 147°47'0 0.0 27.6
2017-Nov-15 17:00N 13°08' W 147°47'0 0.0 27.6
2017-Nov-15 16:00N 13°08' W 147°47'1 1.3 27.6
2017-Nov-15 15:00N 13°08' W 147°46'0 0.0 27.6
2017-Nov-15 13:00N 13°08' W 147°46'2 0.3 27.7
2017-Nov-15 08:00N 13°07' W 147°47'0 0.0 27.8
2017-Nov-15 07:00N 13°07' W 147°47'0 0.0 27.8
2017-Nov-15 06:00N 13°07' W 147°47'0 0.0 27.8
2017-Nov-15 05:00N 13°07' W 147°47'1 0.6 27.8
2017-Nov-15 04:00N 13°06' W 147°47'1 0.8 27.8
2017-Nov-15 03:00N 13°05' W 147°47'0 0.0 27.9
2017-Nov-15 02:00N 13°05' W 147°47'0 0.0 28.2
2017-Nov-15 01:00N 13°05' W 147°47'0 0.0 28.3
2017-Nov-15 00:00N 13°05' W 147°47'3 0.7 28.2
2017-Nov-14 20:00N 13°05' W 147°50'1 0.6 27.7
2017-Nov-14 19:00N 13°05' W 147°51'1 1.2 27.6
2017-Nov-14 18:00N 13°05' W 147°52'2 0.9 27.6
2017-Nov-14 16:00N 13°05' W 147°54'0 0.0 27.6
2017-Nov-14 15:00N 13°05' W 147°54'1 1.3 27.6
2017-Nov-14 14:00N 13°06' W 147°55'0 0.0 27.6
2017-Nov-14 13:00N 13°06' W 147°55'6 1.3 27.7
2017-Nov-14 08:00N 13°11' W 147°59'2 2.5 27.7
2017-Nov-14 07:00N 13°14' W 147°59'0 0.0 27.7
2017-Nov-14 06:00N 13°14' W 147°59'1 0.6 27.7
2017-Nov-14 05:00N 13°14' W 147°59'1 0.8 27.7
2017-Nov-14 04:00N 13°15' W 148°00'3 3.0 27.7
2017-Nov-14 03:00N 13°17' W 147°58'0 0.0 27.7
2017-Nov-14 02:00N 13°17' W 147°58'2 1.9 27.7
2017-Nov-14 01:00N 13°17' W 147°56'2 1.9 27.8
2017-Nov-14 00:00N 13°17' W 147°58'2 0.5 27.8
2017-Nov-13 20:00N 13°17' W 147°56'1 0.6 27.6
2017-Nov-13 19:00N 13°16' W 147°56'0 0.0 27.6
2017-Nov-13 18:00N 13°16' W 147°56'1 0.6 27.6
2017-Nov-13 17:00N 13°16' W 147°57'1 0.6 27.6
2017-Nov-13 16:00N 13°16' W 147°57'1 0.6 27.6
2017-Nov-13 15:00N 13°16' W 147°56'1 0.6 27.6
2017-Nov-13 14:00N 13°16' W 147°57'1 1.3 27.6
2017-Nov-13 13:00N 13°14' W 147°56'2 0.5 27.6
2017-Nov-13 08:00N 13°12' W 147°56'1 0.6 27.6
2017-Nov-13 07:00N 13°11' W 147°56'1 0.6 27.6
2017-Nov-13 06:00N 13°11' W 147°56'1 0.8 27.6
2017-Nov-13 05:00N 13°11' W 147°55'1 0.6 27.6
2017-Nov-13 04:00N 13°11' W 147°55'1 1.3 27.6
2017-Nov-13 03:00N 13°10' W 147°53'1 0.7 27.6
2017-Nov-13 01:00N 13°11' W 147°52'1 1.3 27.6
2017-Nov-13 00:00N 13°10' W 147°53'1 0.3 27.6
2017-Nov-12 20:00N 13°11' W 147°52'1 0.8 27.7
2017-Nov-12 19:00N 13°10' W 147°53'1 0.8 27.7
2017-Nov-12 18:00N 13°11' W 147°52'0 0.0 27.7
2017-Nov-12 17:00N 13°11' W 147°52'1 0.8 27.6
2017-Nov-12 16:00N 13°11' W 147°52'0 0.0 27.6
2017-Nov-12 15:00N 13°11' W 147°52'1 0.6 27.7
2017-Nov-12 14:00N 13°12' W 147°52'1 0.8 27.7
2017-Nov-12 13:00N 13°13' W 147°51'1 0.3 27.7
2017-Nov-12 08:00N 13°12' W 147°50'0 0.0 27.7
2017-Nov-12 07:00N 13°12' W 147°50'1 0.6 27.7
2017-Nov-12 06:00N 13°12' W 147°49'0 0.0 27.8
2017-Nov-12 05:00N 13°12' W 147°49'1 1.3 27.8
2017-Nov-12 04:00N 13°13' W 147°48'0 0.0 27.8
2017-Nov-12 03:00N 13°13' W 147°48'1 0.6 27.8
2017-Nov-12 02:00N 13°13' W 147°47'1 0.8 27.8
2017-Nov-12 01:00N 13°13' W 147°47'0 0.0 27.8
2017-Nov-12 00:00N 13°13' W 147°47'1 0.6 27.8
2017-Nov-11 23:00N 13°13' W 147°46'1 0.2 27.8
2017-Nov-11 20:00N 13°14' W 147°46'1 0.8 27.7
2017-Nov-11 19:00N 13°13' W 147°46'0 0.0 27.7
2017-Nov-11 18:00N 13°13' W 147°46'1 0.6 27.7
2017-Nov-11 17:00N 13°13' W 147°45'1 1.2 27.7
2017-Nov-11 16:00N 13°13' W 147°44'0 0.0 27.7
2017-Nov-11 15:00N 13°13' W 147°44'1 0.8 27.7
2017-Nov-11 14:00N 13°14' W 147°44'1 0.6 27.7
2017-Nov-11 12:00N 13°14' W 147°43'1 0.2 27.7
2017-Nov-11 07:00N 13°13' W 147°44'1 1.2 27.8
2017-Nov-11 06:00N 13°13' W 147°43'0 0.0 27.8
2017-Nov-11 05:00N 13°13' W 147°43'1 0.8 27.8
2017-Nov-11 04:00N 13°13' W 147°42'2 1.8 27.8
2017-Nov-11 03:00N 13°13' W 147°40'2 0.9 27.8
2017-Nov-11 01:00N 13°13' W 147°38'1 1.2 27.9
2017-Nov-11 00:00N 13°13' W 147°37'0 0.0 27.8
2017-Nov-10 23:00N 13°13' W 147°37'1 0.2 27.8
2017-Nov-10 19:00N 13°13' W 147°37'1 0.6 27.7
2017-Nov-10 18:00N 13°13' W 147°36'1 0.6 27.7
2017-Nov-10 17:00N 13°13' W 147°35'1 0.6 27.7
2017-Nov-10 16:00N 13°13' W 147°35'1 1.3 27.7
2017-Nov-10 15:00N 13°13' W 147°34'1 0.8 27.7
2017-Nov-10 14:00N 13°14' W 147°34'1 0.8 27.7
2017-Nov-10 13:00N 13°14' W 147°33'1 0.8 27.7
2017-Nov-10 12:00N 13°14' W 147°32'0 0.0 27.7
2017-Nov-10 08:00N 13°14' W 147°32'1 0.8 27.7
2017-Nov-10 07:00N 13°14' W 147°32'0 0.0 27.7
2017-Nov-10 06:00N 13°14' W 147°32'1 0.8 27.7
2017-Nov-10 05:00N 13°14' W 147°31'1 1.2 27.8
2017-Nov-10 04:00N 13°14' W 147°30'0 0.0 27.8
2017-Nov-10 03:00N 13°14' W 147°30'2 0.8 27.8
2017-Nov-10 01:00N 13°15' W 147°29'0 0.0 27.9
2017-Nov-10 00:00N 13°15' W 147°29'2 1.9 27.9
2017-Nov-09 23:00N 13°14' W 147°27'0 0.0 27.9
2017-Nov-09 20:00N 13°14' W 147°27'1 0.6 27.8
2017-Nov-09 19:00N 13°14' W 147°26'1 0.3 27.8
2017-Nov-09 17:00N 13°14' W 147°26'1 0.8 27.8
2017-Nov-09 16:00N 13°14' W 147°25'1 0.6 27.8
2017-Nov-09 15:00N 13°14' W 147°25'0 0.0 27.8
2017-Nov-09 14:00N 13°14' W 147°25'1 0.6 27.8
2017-Nov-09 13:00N 13°14' W 147°24'0 0.0 27.8
2017-Nov-09 12:00N 13°14' W 147°24'2 0.5 27.8
2017-Nov-09 08:00N 13°12' W 147°23'1 0.6 27.9
2017-Nov-09 07:00N 13°12' W 147°23'1 0.8 27.9
2017-Nov-09 06:00N 13°11' W 147°22'0 0.0 27.9
2017-Nov-09 05:00N 13°11' W 147°22'0 0.0 27.9
2017-Nov-09 04:00N 13°11' W 147°22'1 1.3 27.9
2017-Nov-09 03:00N 13°12' W 147°21'1 0.6 27.9
2017-Nov-09 02:00N 13°11' W 147°21'1 0.6 27.9
2017-Nov-09 01:00N 13°11' W 147°20'0 0.0 28.0
2017-Nov-09 00:00N 13°11' W 147°20'0 0.0 27.9
2017-Nov-08 23:00N 13°11' W 147°20'2 0.6 27.9
2017-Nov-08 20:00N 13°11' W 147°19'1 0.6 27.9
2017-Nov-08 19:00N 13°11' W 147°18'0 0.0 27.9
2017-Nov-08 18:00N 13°11' W 147°18'1 1.3 27.8
2017-Nov-08 17:00N 13°12' W 147°17'1 1.3 27.7
2017-Nov-08 16:00N 13°13' W 147°16'0 0.0 27.8
2017-Nov-08 15:00N 13°13' W 147°16'1 0.6 27.8
2017-Nov-08 14:00N 13°13' W 147°15'5 4.8 27.8
2017-Nov-08 13:00N 13°14' W 147°10'5 4.7 27.8
2017-Nov-08 12:00N 13°14' W 147°15'5 1.2 27.8
2017-Nov-08 08:00N 13°14' W 147°10'2 1.9 27.8
2017-Nov-08 07:00N 13°14' W 147°08'0 0.0 27.8
2017-Nov-08 06:00N 13°14' W 147°08'1 1.3 27.8
2017-Nov-08 05:00N 13°15' W 147°07'2 1.7 27.8
2017-Nov-08 04:00N 13°14' W 147°06'2 1.8 27.9
2017-Nov-08 03:00N 13°14' W 147°04'0 0.0 27.9
2017-Nov-08 02:00N 13°14' W 147°04'2 1.9 27.9
2017-Nov-08 01:00N 13°13' W 147°02'0 0.0 28.0
2017-Nov-08 00:00N 13°13' W 147°02'   28.0
Track history (hours):
 
Tides and Currents Weather Stations Pressure Air Temp Water Temp Dewpoint Dewpoint Depression Visibility Wind Speed Wind Dir Waves Ship Positions

Drifting buoy 32974

Last reported at 2017-Nov-18 00:00 UTC. Time now 2017-Nov-18 01:04 UTC.
Position N 12°59' W 147°47'.

Water temperature 27.8 ° C

Date/timePositionNaut miles runAvg speedWind from/ knotsBaromVisibWave heightAir tempDewpointWater temp
2017-Nov-18 00:00N 12°59' W 147°47'1 0.2 27.8
2017-Nov-17 19:00N 12°58' W 147°47'1 0.6 27.7
2017-Nov-17 18:00N 12°58' W 147°47'0 0.0 27.7
2017-Nov-17 17:00N 12°58' W 147°47'1 0.6 27.7
2017-Nov-17 16:00N 12°58' W 147°47'0 0.0 27.7
2017-Nov-17 15:00N 12°58' W 147°47'0 0.0 27.7
2017-Nov-17 14:00N 12°58' W 147°47'1 1.3 27.7
2017-Nov-17 13:00N 12°57' W 147°46'1 1.2 27.7
2017-Nov-17 12:00N 12°57' W 147°47'1 0.3 27.7
2017-Nov-17 08:00N 12°57' W 147°46'1 1.2 27.7
2017-Nov-17 07:00N 12°58' W 147°46'1 1.2 27.7
2017-Nov-17 06:00N 12°58' W 147°44'1 0.6 27.7
2017-Nov-17 05:00N 12°58' W 147°45'1 0.6 27.8
2017-Nov-17 04:00N 12°59' W 147°45'0 0.0 27.8
2017-Nov-17 03:00N 12°59' W 147°45'1 0.8 27.8
2017-Nov-17 02:00N 12°59' W 147°44'1 0.6 27.8
2017-Nov-17 01:00N 13°00' W 147°44'2 1.9 27.8
2017-Nov-17 00:00N 13°02' W 147°45'0 0.0 27.8
2017-Nov-16 20:00N 13°02' W 147°45'0 0.0 27.7
2017-Nov-16 19:00N 13°02' W 147°45'1 0.6 27.7
2017-Nov-16 18:00N 13°02' W 147°46'1 0.6 27.7
2017-Nov-16 17:00N 13°02' W 147°46'1 1.3 27.9
2017-Nov-16 16:00N 13°03' W 147°46'0 0.0 27.8
2017-Nov-16 15:00N 13°03' W 147°46'1 0.8 27.7
2017-Nov-16 14:00N 13°04' W 147°46'2 2.1 27.7
2017-Nov-16 13:00N 13°05' W 147°47'1 0.1 27.7
2017-Nov-16 07:00N 13°06' W 147°47'1 0.6 28.0
2017-Nov-16 06:00N 13°06' W 147°47'1 0.6 28.0
2017-Nov-16 05:00N 13°07' W 147°47'1 0.6 28.1
2017-Nov-16 04:00N 13°07' W 147°47'1 1.3 28.2
2017-Nov-16 03:00N 13°08' W 147°47'1 0.6 28.4
2017-Nov-16 02:00N 13°08' W 147°47'1 0.3 28.8
2017-Nov-16 00:00N 13°08' W 147°47'1 0.2 28.9
2017-Nov-15 19:00N 13°09' W 147°47'1 0.6 27.7
2017-Nov-15 18:00N 13°08' W 147°47'0 0.0 27.6
2017-Nov-15 17:00N 13°08' W 147°47'0 0.0 27.6
2017-Nov-15 16:00N 13°08' W 147°47'1 1.3 27.6
2017-Nov-15 15:00N 13°08' W 147°46'0 0.0 27.6
2017-Nov-15 13:00N 13°08' W 147°46'2 0.3 27.7
2017-Nov-15 08:00N 13°07' W 147°47'0 0.0 27.8
2017-Nov-15 07:00N 13°07' W 147°47'0 0.0 27.8
2017-Nov-15 06:00N 13°07' W 147°47'0 0.0 27.8
2017-Nov-15 05:00N 13°07' W 147°47'1 0.6 27.8
2017-Nov-15 04:00N 13°06' W 147°47'1 0.8 27.8
2017-Nov-15 03:00N 13°05' W 147°47'0 0.0 27.9
2017-Nov-15 02:00N 13°05' W 147°47'0 0.0 28.2
2017-Nov-15 01:00N 13°05' W 147°47'0 0.0 28.3
2017-Nov-15 00:00N 13°05' W 147°47'3 0.7 28.2
2017-Nov-14 20:00N 13°05' W 147°50'1 0.6 27.7
2017-Nov-14 19:00N 13°05' W 147°51'1 1.2 27.6
2017-Nov-14 18:00N 13°05' W 147°52'2 0.9 27.6
2017-Nov-14 16:00N 13°05' W 147°54'0 0.0 27.6
2017-Nov-14 15:00N 13°05' W 147°54'1 1.3 27.6
2017-Nov-14 14:00N 13°06' W 147°55'0 0.0 27.6
2017-Nov-14 13:00N 13°06' W 147°55'6 1.3 27.7
2017-Nov-14 08:00N 13°11' W 147°59'2 2.5 27.7
2017-Nov-14 07:00N 13°14' W 147°59'0 0.0 27.7
2017-Nov-14 06:00N 13°14' W 147°59'1 0.6 27.7
2017-Nov-14 05:00N 13°14' W 147°59'1 0.8 27.7
2017-Nov-14 04:00N 13°15' W 148°00'3 3.0 27.7
2017-Nov-14 03:00N 13°17' W 147°58'0 0.0 27.7
2017-Nov-14 02:00N 13°17' W 147°58'2 1.9 27.7
2017-Nov-14 01:00N 13°17' W 147°56'2 1.9 27.8
2017-Nov-14 00:00N 13°17' W 147°58'2 0.5 27.8
2017-Nov-13 20:00N 13°17' W 147°56'1 0.6 27.6
2017-Nov-13 19:00N 13°16' W 147°56'0 0.0 27.6
2017-Nov-13 18:00N 13°16' W 147°56'1 0.6 27.6
2017-Nov-13 17:00N 13°16' W 147°57'1 0.6 27.6
2017-Nov-13 16:00N 13°16' W 147°57'1 0.6 27.6
2017-Nov-13 15:00N 13°16' W 147°56'1 0.6 27.6
2017-Nov-13 14:00N 13°16' W 147°57'1 1.3 27.6
2017-Nov-13 13:00N 13°14' W 147°56'2 0.5 27.6
2017-Nov-13 08:00N 13°12' W 147°56'1 0.6 27.6
2017-Nov-13 07:00N 13°11' W 147°56'1 0.6 27.6
2017-Nov-13 06:00N 13°11' W 147°56'1 0.8 27.6
2017-Nov-13 05:00N 13°11' W 147°55'1 0.6 27.6
2017-Nov-13 04:00N 13°11' W 147°55'1 1.3 27.6
2017-Nov-13 03:00N 13°10' W 147°53'1 0.7 27.6
2017-Nov-13 01:00N 13°11' W 147°52'1 1.3 27.6
2017-Nov-13 00:00N 13°10' W 147°53'1 0.3 27.6
2017-Nov-12 20:00N 13°11' W 147°52'1 0.8 27.7
2017-Nov-12 19:00N 13°10' W 147°53'1 0.8 27.7
2017-Nov-12 18:00N 13°11' W 147°52'0 0.0 27.7
2017-Nov-12 17:00N 13°11' W 147°52'1 0.8 27.6
2017-Nov-12 16:00N 13°11' W 147°52'0 0.0 27.6
2017-Nov-12 15:00N 13°11' W 147°52'1 0.6 27.7
2017-Nov-12 14:00N 13°12' W 147°52'1 0.8 27.7
2017-Nov-12 13:00N 13°13' W 147°51'1 0.3 27.7
2017-Nov-12 08:00N 13°12' W 147°50'0 0.0 27.7
2017-Nov-12 07:00N 13°12' W 147°50'1 0.6 27.7
2017-Nov-12 06:00N 13°12' W 147°49'0 0.0 27.8
2017-Nov-12 05:00N 13°12' W 147°49'1 1.3 27.8
2017-Nov-12 04:00N 13°13' W 147°48'0 0.0 27.8
2017-Nov-12 03:00N 13°13' W 147°48'1 0.6 27.8
2017-Nov-12 02:00N 13°13' W 147°47'1 0.8 27.8
2017-Nov-12 01:00N 13°13' W 147°47'0 0.0 27.8
2017-Nov-12 00:00N 13°13' W 147°47'1 0.6 27.8
2017-Nov-11 23:00N 13°13' W 147°46'1 0.2 27.8
2017-Nov-11 20:00N 13°14' W 147°46'1 0.8 27.7
2017-Nov-11 19:00N 13°13' W 147°46'0 0.0 27.7
2017-Nov-11 18:00N 13°13' W 147°46'1 0.6 27.7
2017-Nov-11 17:00N 13°13' W 147°45'1 1.2 27.7
2017-Nov-11 16:00N 13°13' W 147°44'0 0.0 27.7
2017-Nov-11 15:00N 13°13' W 147°44'1 0.8 27.7
2017-Nov-11 14:00N 13°14' W 147°44'1 0.6 27.7
2017-Nov-11 12:00N 13°14' W 147°43'1 0.2 27.7
2017-Nov-11 07:00N 13°13' W 147°44'1 1.2 27.8
2017-Nov-11 06:00N 13°13' W 147°43'0 0.0 27.8
2017-Nov-11 05:00N 13°13' W 147°43'1 0.8 27.8
2017-Nov-11 04:00N 13°13' W 147°42'2 1.8 27.8
2017-Nov-11 03:00N 13°13' W 147°40'2 0.9 27.8
2017-Nov-11 01:00N 13°13' W 147°38'1 1.2 27.9
2017-Nov-11 00:00N 13°13' W 147°37'0 0.0 27.8
2017-Nov-10 23:00N 13°13' W 147°37'1 0.2 27.8
2017-Nov-10 19:00N 13°13' W 147°37'1 0.6 27.7
2017-Nov-10 18:00N 13°13' W 147°36'1 0.6 27.7
2017-Nov-10 17:00N 13°13' W 147°35'1 0.6 27.7
2017-Nov-10 16:00N 13°13' W 147°35'1 1.3 27.7
2017-Nov-10 15:00N 13°13' W 147°34'1 0.8 27.7
2017-Nov-10 14:00N 13°14' W 147°34'1 0.8 27.7
2017-Nov-10 13:00N 13°14' W 147°33'1 0.8 27.7
2017-Nov-10 12:00N 13°14' W 147°32'0 0.0 27.7
2017-Nov-10 08:00N 13°14' W 147°32'1 0.8 27.7
2017-Nov-10 07:00N 13°14' W 147°32'0 0.0 27.7
2017-Nov-10 06:00N 13°14' W 147°32'1 0.8 27.7
2017-Nov-10 05:00N 13°14' W 147°31'1 1.2 27.8
2017-Nov-10 04:00N 13°14' W 147°30'0 0.0 27.8
2017-Nov-10 03:00N 13°14' W 147°30'2 0.8 27.8
2017-Nov-10 01:00N 13°15' W 147°29'0 0.0 27.9
2017-Nov-10 00:00N 13°15' W 147°29'2 1.9 27.9
2017-Nov-09 23:00N 13°14' W 147°27'0 0.0 27.9
2017-Nov-09 20:00N 13°14' W 147°27'1 0.6 27.8
2017-Nov-09 19:00N 13°14' W 147°26'1 0.3 27.8
2017-Nov-09 17:00N 13°14' W 147°26'1 0.8 27.8
2017-Nov-09 16:00N 13°14' W 147°25'1 0.6 27.8
2017-Nov-09 15:00N 13°14' W 147°25'0 0.0 27.8
2017-Nov-09 14:00N 13°14' W 147°25'1 0.6 27.8
2017-Nov-09 13:00N 13°14' W 147°24'0 0.0 27.8
2017-Nov-09 12:00N 13°14' W 147°24'2 0.5 27.8
2017-Nov-09 08:00N 13°12' W 147°23'1 0.6 27.9
2017-Nov-09 07:00N 13°12' W 147°23'1 0.8 27.9
2017-Nov-09 06:00N 13°11' W 147°22'0 0.0 27.9
2017-Nov-09 05:00N 13°11' W 147°22'0 0.0 27.9
2017-Nov-09 04:00N 13°11' W 147°22'1 1.3 27.9
2017-Nov-09 03:00N 13°12' W 147°21'1 0.6 27.9
2017-Nov-09 02:00N 13°11' W 147°21'1 0.6 27.9
2017-Nov-09 01:00N 13°11' W 147°20'0 0.0 28.0
2017-Nov-09 00:00N 13°11' W 147°20'0 0.0 27.9
2017-Nov-08 23:00N 13°11' W 147°20'2 0.6 27.9
2017-Nov-08 20:00N 13°11' W 147°19'1 0.6 27.9
2017-Nov-08 19:00N 13°11' W 147°18'0 0.0 27.9
2017-Nov-08 18:00N 13°11' W 147°18'1 1.3 27.8
2017-Nov-08 17:00N 13°12' W 147°17'1 1.3 27.7
2017-Nov-08 16:00N 13°13' W 147°16'0 0.0 27.8
2017-Nov-08 15:00N 13°13' W 147°16'1 0.6 27.8
2017-Nov-08 14:00N 13°13' W 147°15'5 4.8 27.8
2017-Nov-08 13:00N 13°14' W 147°10'5 4.7 27.8
2017-Nov-08 12:00N 13°14' W 147°15'5 1.2 27.8
2017-Nov-08 08:00N 13°14' W 147°10'2 1.9 27.8
2017-Nov-08 07:00N 13°14' W 147°08'0 0.0 27.8
2017-Nov-08 06:00N 13°14' W 147°08'1 1.3 27.8
2017-Nov-08 05:00N 13°15' W 147°07'2 1.7 27.8
2017-Nov-08 04:00N 13°14' W 147°06'2 1.8 27.9
2017-Nov-08 03:00N 13°14' W 147°04'0 0.0 27.9
2017-Nov-08 02:00N 13°14' W 147°04'2 1.9 27.9
2017-Nov-08 01:00N 13°13' W 147°02'0 0.0 28.0
2017-Nov-08 00:00N 13°13' W 147°02'   28.0

Dump ship's entire track history